Pagrindinis puslapis
METAR-TAF:

METAR-TAF

Oro uostai :

Brevig Mission, Aliaska, Jungtinės Amerikos Valstijos

platuma: 65-19-53N, ilguma: 166-27-57W, Aukštis: 11 m

Dabartinis oras

Ataskaita buvo paskelbta 28 minutes, ne 05:56 UTC
Vėjas 11 kt iš Vakarų/Pietvakarių su gūsio iki 17 kt
Temperatūra 9°C
Drėgmė 81%
Slėgis 1018 hPa
Matomumas: 16.1 km
Apsiniaukę ne aukštis 1600 ft

METAR: PFKT 130556Z AUTO 24011G17KT 10SM OVC016 09/06 A3006 RMK AO2 SLP179 T00940061 10106 20094 53002

Laikas: 22:24 (06:24 UTC)


TAF: trūkstamas

Orai ataskaitas ir orų prognozės (METAR, TAF).

turimą stotys yra geltonos ir raudonos taškus žemėlapyje.

Perkelti pele per norėdami pamatyti stoties vardą.

Tada spustelėkite, norėdami matyti oro stebėjimo ir prognozės.

Norėdami pakeisti žemėlapį: spustelėkite ant žalios mygtukų su juodo kryžiaus žemyn,; žalią mygtuką su brūkšneliu, jei norite nutolinti; arba žalių rodyklių gretimoms žemėlapius.


METAR-TAF: